sensor_id;sensor_type;location;lat;lon;timestamp;P1;durP1;ratioP1;P2;durP2;ratioP2
49139;SDS011;34959;49.310;8.646;2022-12-11T00:00:35;4.13;;;2.17;;
49139;SDS011;34959;49.310;8.646;2022-12-11T00:03:02;2.65;;;2.00;;
49139;SDS011;34959;49.310;8.646;2022-12-11T00:05:28;3.50;;;2.08;;
49139;SDS011;34959;49.310;8.646;2022-12-11T00:07:53;3.90;;;2.15;;
49139;SDS011;34959;49.310;8.646;2022-12-11T00:10:19;5.32;;;2.30;;
49139;SDS011;34959;49.310;8.646;2022-12-11T00:12:44;4.38;;;1.95;;
49139;SDS011;34959;49.310;8.646;2022-12-11T00:15:09;3.28;;;2.10;;
49139;SDS011;34959;49.310;8.646;2022-12-11T00:17:35;2.05;;;1.70;;
49139;SDS011;34959;49.310;8.646;2022-12-11T00:20:00;2.80;;;1.70;;
49139;SDS011;34959;49.310;8.646;2022-12-11T00:22:27;2.40;;;1.90;;
49139;SDS011;34959;49.310;8.646;2022-12-11T00:24:54;2.35;;;1.83;;
49139;SDS011;34959;49.310;8.646;2022-12-11T00:27:19;3.30;;;2.13;;
49139;SDS011;34959;49.310;8.646;2022-12-11T00:29:44;4.63;;;1.98;;
49139;SDS011;34959;49.310;8.646;2022-12-11T00:32:10;3.33;;;1.95;;
49139;SDS011;34959;49.310;8.646;2022-12-11T00:34:35;3.25;;;1.90;;
49139;SDS011;34959;49.310;8.646;2022-12-11T00:37:00;3.47;;;2.03;;
49139;SDS011;34959;49.310;8.646;2022-12-11T00:39:26;2.40;;;1.63;;
49139;SDS011;34959;49.310;8.646;2022-12-11T00:41:51;3.17;;;1.90;;
49139;SDS011;34959;49.310;8.646;2022-12-11T00:44:17;3.67;;;2.22;;
49139;SDS011;34959;49.310;8.646;2022-12-11T00:46:42;3.05;;;1.70;;
49139;SDS011;34959;49.310;8.646;2022-12-11T00:49:07;2.67;;;2.08;;
49139;SDS011;34959;49.310;8.646;2022-12-11T00:51:33;4.53;;;1.80;;
49139;SDS011;34959;49.310;8.646;2022-12-11T00:53:58;2.58;;;1.77;;
49139;SDS011;34959;49.310;8.646;2022-12-11T00:56:24;2.90;;;2.00;;
49139;SDS011;34959;49.310;8.646;2022-12-11T00:58:49;3.40;;;1.77;;
49139;SDS011;34959;49.310;8.646;2022-12-11T01:01:19;3.60;;;1.85;;
49139;SDS011;34959;49.310;8.646;2022-12-11T01:03:46;3.10;;;1.98;;
49139;SDS011;34959;49.310;8.646;2022-12-11T01:06:13;2.40;;;1.88;;
49139;SDS011;34959;49.310;8.646;2022-12-11T01:08:49;2.67;;;1.90;;
49139;SDS011;34959;49.310;8.646;2022-12-11T01:11:38;7.68;;;1.98;;
49139;SDS011;34959;49.310;8.646;2022-12-11T01:14:04;3.53;;;1.95;;
49139;SDS011;34959;49.310;8.646;2022-12-11T01:16:29;4.03;;;1.90;;
49139;SDS011;34959;49.310;8.646;2022-12-11T01:18:55;4.13;;;1.95;;
49139;SDS011;34959;49.310;8.646;2022-12-11T01:21:21;21.08;;;2.95;;
49139;SDS011;34959;49.310;8.646;2022-12-11T01:23:48;6.47;;;2.13;;
49139;SDS011;34959;49.310;8.646;2022-12-11T01:26:14;4.55;;;2.10;;
49139;SDS011;34959;49.310;8.646;2022-12-11T01:28:40;4.38;;;2.15;;
49139;SDS011;34959;49.310;8.646;2022-12-11T01:31:12;4.18;;;2.17;;
49139;SDS011;34959;49.310;8.646;2022-12-11T01:33:39;4.35;;;2.28;;
49139;SDS011;34959;49.310;8.646;2022-12-11T01:36:08;4.07;;;2.25;;
49139;SDS011;34959;49.310;8.646;2022-12-11T01:38:42;4.18;;;2.28;;
49139;SDS011;34959;49.310;8.646;2022-12-11T01:41:08;4.47;;;2.50;;
49139;SDS011;34959;49.310;8.646;2022-12-11T01:43:34;5.85;;;2.50;;
49139;SDS011;34959;49.310;8.646;2022-12-11T01:46:00;3.97;;;2.65;;
49139;SDS011;34959;49.310;8.646;2022-12-11T01:48:29;4.95;;;2.67;;
49139;SDS011;34959;49.310;8.646;2022-12-11T01:50:57;6.22;;;2.67;;
49139;SDS011;34959;49.310;8.646;2022-12-11T01:53:26;5.82;;;3.50;;
49139;SDS011;34959;49.310;8.646;2022-12-11T01:55:54;5.78;;;2.72;;
49139;SDS011;34959;49.310;8.646;2022-12-11T01:58:21;3.90;;;2.63;;
49139;SDS011;34959;49.310;8.646;2022-12-11T02:00:48;4.50;;;2.90;;
49139;SDS011;34959;49.310;8.646;2022-12-11T02:03:15;4.07;;;2.85;;
49139;SDS011;34959;49.310;8.646;2022-12-11T02:05:41;3.65;;;2.80;;
49139;SDS011;34959;49.310;8.646;2022-12-11T02:08:06;4.38;;;2.80;;
49139;SDS011;34959;49.310;8.646;2022-12-11T02:11:19;5.38;;;2.60;;
49139;SDS011;34959;49.310;8.646;2022-12-11T02:13:37;7.40;;;3.22;;
49139;SDS011;34959;49.310;8.646;2022-12-11T02:16:17;3.90;;;2.78;;
49139;SDS011;34959;49.310;8.646;2022-12-11T02:18:57;5.45;;;3.25;;
49139;SDS011;34959;49.310;8.646;2022-12-11T02:21:40;4.68;;;2.85;;
49139;SDS011;34959;49.310;8.646;2022-12-11T02:27:19;4.13;;;2.75;;
49139;SDS011;34959;49.310;8.646;2022-12-11T02:29:51;5.03;;;2.90;;
49139;SDS011;34959;49.310;8.646;2022-12-11T02:35:19;6.40;;;3.60;;
49139;SDS011;34959;49.310;8.646;2022-12-11T02:37:49;3.90;;;2.92;;
49139;SDS011;34959;49.310;8.646;2022-12-11T02:40:18;6.15;;;3.05;;
49139;SDS011;34959;49.310;8.646;2022-12-11T02:42:47;7.50;;;2.90;;
49139;SDS011;34959;49.310;8.646;2022-12-11T02:45:14;8.48;;;2.78;;
49139;SDS011;34959;49.310;8.646;2022-12-11T02:47:41;7.50;;;3.20;;
49139;SDS011;34959;49.310;8.646;2022-12-11T02:50:10;8.95;;;2.92;;
49139;SDS011;34959;49.310;8.646;2022-12-11T02:52:40;7.05;;;3.08;;
49139;SDS011;34959;49.310;8.646;2022-12-11T02:55:06;5.93;;;3.15;;
49139;SDS011;34959;49.310;8.646;2022-12-11T03:00:34;4.50;;;2.75;;
49139;SDS011;34959;49.310;8.646;2022-12-11T03:03:00;7.68;;;3.28;;
49139;SDS011;34959;49.310;8.646;2022-12-11T03:05:25;3.72;;;2.78;;
49139;SDS011;34959;49.310;8.646;2022-12-11T03:07:52;3.63;;;2.67;;
49139;SDS011;34959;49.310;8.646;2022-12-11T03:10:18;4.20;;;2.70;;
49139;SDS011;34959;49.310;8.646;2022-12-11T03:12:44;5.25;;;2.78;;
49139;SDS011;34959;49.310;8.646;2022-12-11T03:15:13;4.00;;;3.10;;
49139;SDS011;34959;49.310;8.646;2022-12-11T03:17:46;4.47;;;2.72;;
49139;SDS011;34959;49.310;8.646;2022-12-11T03:20:43;3.72;;;2.75;;
49139;SDS011;34959;49.310;8.646;2022-12-11T03:23:21;3.85;;;2.90;;
49139;SDS011;34959;49.310;8.646;2022-12-11T03:26:05;4.03;;;3.03;;
49139;SDS011;34959;49.310;8.646;2022-12-11T03:31:48;4.65;;;2.88;;
49139;SDS011;34959;49.310;8.646;2022-12-11T03:34:15;5.22;;;3.10;;
49139;SDS011;34959;49.310;8.646;2022-12-11T03:36:43;3.42;;;2.65;;
49139;SDS011;34959;49.310;8.646;2022-12-11T03:39:11;4.07;;;2.88;;
49139;SDS011;34959;49.310;8.646;2022-12-11T03:41:41;4.35;;;3.13;;
49139;SDS011;34959;49.310;8.646;2022-12-11T03:44:08;7.47;;;3.30;;
49139;SDS011;34959;49.310;8.646;2022-12-11T03:46:35;4.70;;;2.80;;
49139;SDS011;34959;49.310;8.646;2022-12-11T03:49:07;3.25;;;2.60;;
49139;SDS011;34959;49.310;8.646;2022-12-11T03:51:39;4.95;;;3.13;;
49139;SDS011;34959;49.310;8.646;2022-12-11T03:54:06;5.15;;;3.10;;
49139;SDS011;34959;49.310;8.646;2022-12-11T03:56:32;4.05;;;2.88;;
49139;SDS011;34959;49.310;8.646;2022-12-11T03:58:58;6.30;;;2.72;;
49139;SDS011;34959;49.310;8.646;2022-12-11T04:01:23;4.45;;;3.38;;
49139;SDS011;34959;49.310;8.646;2022-12-11T04:03:49;4.95;;;2.72;;
49139;SDS011;34959;49.310;8.646;2022-12-11T04:06:14;3.67;;;2.88;;
49139;SDS011;34959;49.310;8.646;2022-12-11T04:08:40;4.38;;;2.83;;
49139;SDS011;34959;49.310;8.646;2022-12-11T04:11:05;3.97;;;3.05;;
49139;SDS011;34959;49.310;8.646;2022-12-11T04:13:49;5.80;;;2.92;;
49139;SDS011;34959;49.310;8.646;2022-12-11T04:16:35;4.43;;;2.97;;
49139;SDS011;34959;49.310;8.646;2022-12-11T04:19:00;4.03;;;3.00;;
49139;SDS011;34959;49.310;8.646;2022-12-11T04:21:44;4.05;;;3.20;;
49139;SDS011;34959;49.310;8.646;2022-12-11T04:24:28;4.53;;;3.13;;
49139;SDS011;34959;49.310;8.646;2022-12-11T04:26:53;3.67;;;2.88;;
49139;SDS011;34959;49.310;8.646;2022-12-11T04:29:19;3.80;;;3.17;;
49139;SDS011;34959;49.310;8.646;2022-12-11T04:31:44;4.25;;;3.20;;
49139;SDS011;34959;49.310;8.646;2022-12-11T04:34:09;4.50;;;3.30;;
49139;SDS011;34959;49.310;8.646;2022-12-11T04:36:35;4.50;;;2.85;;
49139;SDS011;34959;49.310;8.646;2022-12-11T04:39:00;5.15;;;2.95;;
49139;SDS011;34959;49.310;8.646;2022-12-11T04:41:26;3.80;;;3.03;;
49139;SDS011;34959;49.310;8.646;2022-12-11T04:43:51;5.90;;;3.13;;
49139;SDS011;34959;49.310;8.646;2022-12-11T04:46:18;5.18;;;3.25;;
49139;SDS011;34959;49.310;8.646;2022-12-11T04:48:45;3.55;;;2.78;;
49139;SDS011;34959;49.310;8.646;2022-12-11T04:51:11;3.88;;;3.42;;
49139;SDS011;34959;49.310;8.646;2022-12-11T04:53:37;4.20;;;3.30;;
49139;SDS011;34959;49.310;8.646;2022-12-11T04:56:10;3.88;;;2.85;;
49139;SDS011;34959;49.310;8.646;2022-12-11T04:58:37;3.78;;;3.00;;
49139;SDS011;34959;49.310;8.646;2022-12-11T05:01:06;4.40;;;3.53;;
49139;SDS011;34959;49.310;8.646;2022-12-11T05:03:35;5.47;;;3.08;;
49139;SDS011;34959;49.310;8.646;2022-12-11T05:06:00;4.47;;;2.83;;
49139;SDS011;34959;49.310;8.646;2022-12-11T05:08:26;4.32;;;3.33;;
49139;SDS011;34959;49.310;8.646;2022-12-11T05:10:55;4.13;;;3.28;;
49139;SDS011;34959;49.310;8.646;2022-12-11T05:13:25;4.30;;;3.10;;
49139;SDS011;34959;49.310;8.646;2022-12-11T05:15:51;3.90;;;3.20;;
49139;SDS011;34959;49.310;8.646;2022-12-11T05:18:16;4.20;;;3.20;;
49139;SDS011;34959;49.310;8.646;2022-12-11T05:20:42;5.60;;;3.35;;
49139;SDS011;34959;49.310;8.646;2022-12-11T05:23:07;4.15;;;3.15;;
49139;SDS011;34959;49.310;8.646;2022-12-11T05:25:32;4.20;;;3.17;;
49139;SDS011;34959;49.310;8.646;2022-12-11T05:27:58;5.35;;;3.10;;
49139;SDS011;34959;49.310;8.646;2022-12-11T05:30:23;4.97;;;3.40;;
49139;SDS011;34959;49.310;8.646;2022-12-11T05:32:49;5.30;;;3.40;;
49139;SDS011;34959;49.310;8.646;2022-12-11T05:35:14;4.30;;;3.47;;
49139;SDS011;34959;49.310;8.646;2022-12-11T05:37:40;6.00;;;3.47;;
49139;SDS011;34959;49.310;8.646;2022-12-11T05:40:05;3.90;;;3.25;;
49139;SDS011;34959;49.310;8.646;2022-12-11T05:42:32;3.63;;;3.10;;
49139;SDS011;34959;49.310;8.646;2022-12-11T05:44:57;5.22;;;3.20;;
49139;SDS011;34959;49.310;8.646;2022-12-11T05:47:23;3.47;;;2.97;;
49139;SDS011;34959;49.310;8.646;2022-12-11T05:49:48;5.53;;;3.15;;
49139;SDS011;34959;49.310;8.646;2022-12-11T05:52:13;3.88;;;2.88;;
49139;SDS011;34959;49.310;8.646;2022-12-11T05:54:40;5.97;;;2.70;;
49139;SDS011;34959;49.310;8.646;2022-12-11T05:57:06;3.97;;;3.25;;
49139;SDS011;34959;49.310;8.646;2022-12-11T05:59:31;5.68;;;3.25;;
49139;SDS011;34959;49.310;8.646;2022-12-11T06:01:57;4.68;;;3.20;;
49139;SDS011;34959;49.310;8.646;2022-12-11T06:04:22;4.95;;;3.00;;
49139;SDS011;34959;49.310;8.646;2022-12-11T06:06:47;7.78;;;3.38;;
49139;SDS011;34959;49.310;8.646;2022-12-11T06:09:13;4.40;;;3.20;;
49139;SDS011;34959;49.310;8.646;2022-12-11T06:11:39;3.60;;;2.72;;
49139;SDS011;34959;49.310;8.646;2022-12-11T06:14:05;4.07;;;3.40;;
49139;SDS011;34959;49.310;8.646;2022-12-11T06:16:30;5.32;;;3.20;;
49139;SDS011;34959;49.310;8.646;2022-12-11T06:18:56;3.85;;;3.38;;
49139;SDS011;34959;49.310;8.646;2022-12-11T06:21:23;4.25;;;3.10;;
49139;SDS011;34959;49.310;8.646;2022-12-11T06:23:53;4.72;;;3.35;;
49139;SDS011;34959;49.310;8.646;2022-12-11T06:26:20;3.30;;;2.70;;
49139;SDS011;34959;49.310;8.646;2022-12-11T06:28:45;5.03;;;3.20;;
49139;SDS011;34959;49.310;8.646;2022-12-11T06:31:11;4.10;;;3.20;;
49139;SDS011;34959;49.310;8.646;2022-12-11T06:33:37;4.45;;;3.20;;
49139;SDS011;34959;49.310;8.646;2022-12-11T06:36:03;3.85;;;3.08;;
49139;SDS011;34959;49.310;8.646;2022-12-11T06:38:31;5.43;;;3.47;;
49139;SDS011;34959;49.310;8.646;2022-12-11T06:40:57;5.05;;;3.10;;
49139;SDS011;34959;49.310;8.646;2022-12-11T06:43:23;3.13;;;2.58;;
49139;SDS011;34959;49.310;8.646;2022-12-11T06:45:49;4.20;;;3.30;;
49139;SDS011;34959;49.310;8.646;2022-12-11T06:48:15;3.72;;;2.88;;
49139;SDS011;34959;49.310;8.646;2022-12-11T06:50:40;6.45;;;3.25;;
49139;SDS011;34959;49.310;8.646;2022-12-11T06:53:06;3.97;;;3.03;;
49139;SDS011;34959;49.310;8.646;2022-12-11T06:55:34;4.85;;;2.75;;
49139;SDS011;34959;49.310;8.646;2022-12-11T06:58:00;3.58;;;3.10;;
49139;SDS011;34959;49.310;8.646;2022-12-11T07:00:25;4.95;;;3.25;;
49139;SDS011;34959;49.310;8.646;2022-12-11T07:02:51;3.65;;;2.80;;
49139;SDS011;34959;49.310;8.646;2022-12-11T07:05:16;5.65;;;3.30;;
49139;SDS011;34959;49.310;8.646;2022-12-11T07:07:41;5.47;;;3.30;;
49139;SDS011;34959;49.310;8.646;2022-12-11T07:10:07;4.78;;;2.92;;
49139;SDS011;34959;49.310;8.646;2022-12-11T07:12:33;5.50;;;3.15;;
49139;SDS011;34959;49.310;8.646;2022-12-11T07:14:59;3.80;;;3.03;;
49139;SDS011;34959;49.310;8.646;2022-12-11T07:17:24;3.95;;;3.05;;
49139;SDS011;34959;49.310;8.646;2022-12-11T07:19:49;4.25;;;3.00;;
49139;SDS011;34959;49.310;8.646;2022-12-11T07:22:15;3.78;;;2.97;;
49139;SDS011;34959;49.310;8.646;2022-12-11T07:24:40;3.45;;;2.88;;
49139;SDS011;34959;49.310;8.646;2022-12-11T07:27:06;4.18;;;3.10;;
49139;SDS011;34959;49.310;8.646;2022-12-11T07:29:31;5.45;;;3.50;;
49139;SDS011;34959;49.310;8.646;2022-12-11T07:31:56;3.65;;;2.88;;
49139;SDS011;34959;49.310;8.646;2022-12-11T07:34:22;4.53;;;3.20;;
49139;SDS011;34959;49.310;8.646;2022-12-11T07:36:47;6.32;;;3.17;;
49139;SDS011;34959;49.310;8.646;2022-12-11T07:39:13;4.63;;;2.97;;
49139;SDS011;34959;49.310;8.646;2022-12-11T07:41:38;3.22;;;2.75;;
49139;SDS011;34959;49.310;8.646;2022-12-11T07:44:03;4.07;;;2.75;;
49139;SDS011;34959;49.310;8.646;2022-12-11T07:46:30;4.22;;;3.03;;
49139;SDS011;34959;49.310;8.646;2022-12-11T07:48:56;4.95;;;2.78;;
49139;SDS011;34959;49.310;8.646;2022-12-11T07:51:26;3.97;;;3.03;;
49139;SDS011;34959;49.310;8.646;2022-12-11T07:53:56;5.82;;;3.10;;
49139;SDS011;34959;49.310;8.646;2022-12-11T07:56:23;3.58;;;3.00;;
49139;SDS011;34959;49.310;8.646;2022-12-11T07:58:49;6.45;;;3.28;;
49139;SDS011;34959;49.310;8.646;2022-12-11T08:01:18;3.67;;;2.85;;
49139;SDS011;34959;49.310;8.646;2022-12-11T08:03:46;4.28;;;3.28;;
49139;SDS011;34959;49.310;8.646;2022-12-11T08:06:12;4.40;;;2.90;;
49139;SDS011;34959;49.310;8.646;2022-12-11T08:08:37;4.53;;;3.00;;
49139;SDS011;34959;49.310;8.646;2022-12-11T08:11:04;4.47;;;3.20;;
49139;SDS011;34959;49.310;8.646;2022-12-11T08:13:31;4.45;;;2.90;;
49139;SDS011;34959;49.310;8.646;2022-12-11T08:15:57;4.13;;;3.00;;
49139;SDS011;34959;49.310;8.646;2022-12-11T08:18:23;3.80;;;2.97;;
49139;SDS011;34959;49.310;8.646;2022-12-11T08:20:49;4.43;;;3.33;;
49139;SDS011;34959;49.310;8.646;2022-12-11T08:23:14;4.22;;;3.28;;
49139;SDS011;34959;49.310;8.646;2022-12-11T08:25:39;3.78;;;3.20;;
49139;SDS011;34959;49.310;8.646;2022-12-11T08:28:05;4.68;;;3.00;;
49139;SDS011;34959;49.310;8.646;2022-12-11T08:30:30;3.63;;;3.00;;
49139;SDS011;34959;49.310;8.646;2022-12-11T08:32:56;4.28;;;3.20;;
49139;SDS011;34959;49.310;8.646;2022-12-11T08:35:22;3.47;;;2.65;;
49139;SDS011;34959;49.310;8.646;2022-12-11T08:37:47;4.97;;;2.90;;
49139;SDS011;34959;49.310;8.646;2022-12-11T08:40:13;3.58;;;2.95;;
49139;SDS011;34959;49.310;8.646;2022-12-11T08:42:38;3.60;;;2.80;;
49139;SDS011;34959;49.310;8.646;2022-12-11T08:45:04;3.30;;;2.90;;
49139;SDS011;34959;49.310;8.646;2022-12-11T08:47:30;4.07;;;2.85;;
49139;SDS011;34959;49.310;8.646;2022-12-11T08:49:55;4.68;;;2.67;;
49139;SDS011;34959;49.310;8.646;2022-12-11T08:52:21;3.97;;;2.97;;
49139;SDS011;34959;49.310;8.646;2022-12-11T08:54:47;4.53;;;3.20;;
49139;SDS011;34959;49.310;8.646;2022-12-11T08:57:12;3.72;;;2.80;;
49139;SDS011;34959;49.310;8.646;2022-12-11T08:59:37;4.05;;;2.97;;
49139;SDS011;34959;49.310;8.646;2022-12-11T09:02:03;3.17;;;2.58;;
49139;SDS011;34959;49.310;8.646;2022-12-11T09:04:28;5.00;;;3.45;;
49139;SDS011;34959;49.310;8.646;2022-12-11T09:06:54;4.38;;;2.70;;
49139;SDS011;34959;49.310;8.646;2022-12-11T09:09:19;3.80;;;3.05;;
49139;SDS011;34959;49.310;8.646;2022-12-11T09:11:44;5.28;;;3.45;;
49139;SDS011;34959;49.310;8.646;2022-12-11T09:14:10;3.60;;;3.03;;
49139;SDS011;34959;49.310;8.646;2022-12-11T09:16:37;4.07;;;2.72;;
49139;SDS011;34959;49.310;8.646;2022-12-11T09:19:05;4.38;;;3.00;;
49139;SDS011;34959;49.310;8.646;2022-12-11T09:21:31;4.55;;;2.90;;
49139;SDS011;34959;49.310;8.646;2022-12-11T09:23:58;4.07;;;3.13;;
49139;SDS011;34959;49.310;8.646;2022-12-11T09:26:24;4.00;;;3.25;;
49139;SDS011;34959;49.310;8.646;2022-12-11T09:28:50;4.18;;;3.10;;
49139;SDS011;34959;49.310;8.646;2022-12-11T09:31:22;6.10;;;3.25;;
49139;SDS011;34959;49.310;8.646;2022-12-11T09:36:16;4.40;;;3.00;;
49139;SDS011;34959;49.310;8.646;2022-12-11T09:38:42;6.82;;;3.10;;
49139;SDS011;34959;49.310;8.646;2022-12-11T09:43:47;4.70;;;3.05;;
49139;SDS011;34959;49.310;8.646;2022-12-11T09:46:16;4.25;;;3.03;;
49139;SDS011;34959;49.310;8.646;2022-12-11T09:48:43;3.22;;;2.72;;
49139;SDS011;34959;49.310;8.646;2022-12-11T09:51:17;4.18;;;3.08;;
49139;SDS011;34959;49.310;8.646;2022-12-11T09:54:03;4.40;;;3.10;;
49139;SDS011;34959;49.310;8.646;2022-12-11T09:56:33;4.05;;;3.10;;
49139;SDS011;34959;49.310;8.646;2022-12-11T09:59:04;3.50;;;3.13;;
49139;SDS011;34959;49.310;8.646;2022-12-11T10:01:52;4.20;;;3.25;;
49139;SDS011;34959;49.310;8.646;2022-12-11T10:04:47;4.60;;;3.42;;
49139;SDS011;34959;49.310;8.646;2022-12-11T10:07:28;3.95;;;3.03;;
49139;SDS011;34959;49.310;8.646;2022-12-11T10:09:58;3.75;;;3.05;;
49139;SDS011;34959;49.310;8.646;2022-12-11T10:17:40;3.83;;;3.00;;
49139;SDS011;34959;49.310;8.646;2022-12-11T10:23:07;3.78;;;3.13;;
49139;SDS011;34959;49.310;8.646;2022-12-11T10:25:42;6.10;;;2.80;;
49139;SDS011;34959;49.310;8.646;2022-12-11T10:28:11;3.53;;;3.00;;
49139;SDS011;34959;49.310;8.646;2022-12-11T10:30:44;3.92;;;2.85;;
49139;SDS011;34959;49.310;8.646;2022-12-11T10:33:21;3.78;;;3.30;;
49139;SDS011;34959;49.310;8.646;2022-12-11T10:35:52;3.50;;;2.92;;
49139;SDS011;34959;49.310;8.646;2022-12-11T10:38:21;4.10;;;3.17;;
49139;SDS011;34959;49.310;8.646;2022-12-11T10:41:02;3.78;;;2.80;;
49139;SDS011;34959;49.310;8.646;2022-12-11T10:46:01;3.28;;;2.90;;
49139;SDS011;34959;49.310;8.646;2022-12-11T10:48:28;3.90;;;3.22;;
49139;SDS011;34959;49.310;8.646;2022-12-11T10:50:57;4.93;;;3.05;;
49139;SDS011;34959;49.310;8.646;2022-12-11T10:53:25;30.08;;;21.55;;
49139;SDS011;34959;49.310;8.646;2022-12-11T10:55:51;32.13;;;17.92;;
49139;SDS011;34959;49.310;8.646;2022-12-11T10:58:21;30.50;;;16.23;;
49139;SDS011;34959;49.310;8.646;2022-12-11T11:00:58;17.98;;;11.43;;
49139;SDS011;34959;49.310;8.646;2022-12-11T11:03:29;17.60;;;10.13;;
49139;SDS011;34959;49.310;8.646;2022-12-11T11:06:11;13.90;;;9.07;;
49139;SDS011;34959;49.310;8.646;2022-12-11T11:08:49;11.07;;;7.80;;
49139;SDS011;34959;49.310;8.646;2022-12-11T11:11:32;11.20;;;7.75;;
49139;SDS011;34959;49.310;8.646;2022-12-11T11:14:17;12.02;;;7.60;;
49139;SDS011;34959;49.310;8.646;2022-12-11T11:16:45;10.45;;;7.60;;
49139;SDS011;34959;49.310;8.646;2022-12-11T11:21:46;10.10;;;6.87;;
49139;SDS011;34959;49.310;8.646;2022-12-11T11:24:20;9.18;;;6.00;;
49139;SDS011;34959;49.310;8.646;2022-12-11T11:27:18;18.02;;;12.40;;
49139;SDS011;34959;49.310;8.646;2022-12-11T11:29:46;21.77;;;15.90;;
49139;SDS011;34959;49.310;8.646;2022-12-11T11:32:19;26.30;;;18.58;;
49139;SDS011;34959;49.310;8.646;2022-12-11T11:34:47;21.50;;;13.80;;
49139;SDS011;34959;49.310;8.646;2022-12-11T11:37:23;14.18;;;10.77;;
49139;SDS011;34959;49.310;8.646;2022-12-11T11:40:18;14.95;;;10.23;;
49139;SDS011;34959;49.310;8.646;2022-12-11T11:45:50;10.77;;;8.35;;
49139;SDS011;34959;49.310;8.646;2022-12-11T11:51:20;10.13;;;7.35;;
49139;SDS011;34959;49.310;8.646;2022-12-11T11:53:50;12.60;;;7.25;;
49139;SDS011;34959;49.310;8.646;2022-12-11T11:56:26;9.88;;;7.38;;
49139;SDS011;34959;49.310;8.646;2022-12-11T11:59:00;8.32;;;6.38;;
49139;SDS011;34959;49.310;8.646;2022-12-11T12:01:30;8.82;;;6.47;;
49139;SDS011;34959;49.310;8.646;2022-12-11T12:03:55;9.25;;;6.75;;
49139;SDS011;34959;49.310;8.646;2022-12-11T12:14:19;8.20;;;5.47;;
49139;SDS011;34959;49.310;8.646;2022-12-11T12:19:37;7.35;;;5.43;;
49139;SDS011;34959;49.310;8.646;2022-12-11T12:25:22;6.70;;;5.07;;
49139;SDS011;34959;49.310;8.646;2022-12-11T12:30:47;6.35;;;4.45;;
49139;SDS011;34959;49.310;8.646;2022-12-11T12:33:42;5.90;;;4.43;;
49139;SDS011;34959;49.310;8.646;2022-12-11T12:37:16;6.05;;;4.53;;
49139;SDS011;34959;49.310;8.646;2022-12-11T12:44:31;6.03;;;4.40;;
49139;SDS011;34959;49.310;8.646;2022-12-11T12:47:13;6.55;;;4.65;;
49139;SDS011;34959;49.310;8.646;2022-12-11T12:49:40;6.50;;;4.13;;
49139;SDS011;34959;49.310;8.646;2022-12-11T12:52:10;6.15;;;4.47;;
49139;SDS011;34959;49.310;8.646;2022-12-11T12:54:40;7.18;;;4.05;;
49139;SDS011;34959;49.310;8.646;2022-12-11T12:57:06;5.53;;;3.80;;
49139;SDS011;34959;49.310;8.646;2022-12-11T12:59:32;5.90;;;3.90;;
49139;SDS011;34959;49.310;8.646;2022-12-11T13:01:59;5.43;;;4.15;;
49139;SDS011;34959;49.310;8.646;2022-12-11T13:04:36;5.35;;;4.43;;
49139;SDS011;34959;49.310;8.646;2022-12-11T13:07:19;5.32;;;4.25;;
49139;SDS011;34959;49.310;8.646;2022-12-11T13:09:55;5.40;;;4.18;;
49139;SDS011;34959;49.310;8.646;2022-12-11T13:12:42;4.55;;;3.72;;
49139;SDS011;34959;49.310;8.646;2022-12-11T13:15:43;4.78;;;3.97;;
49139;SDS011;34959;49.310;8.646;2022-12-11T13:21:02;5.93;;;4.18;;
49139;SDS011;34959;49.310;8.646;2022-12-11T13:23:46;6.03;;;4.35;;
49139;SDS011;34959;49.310;8.646;2022-12-11T13:26:12;9.40;;;4.20;;
49139;SDS011;34959;49.310;8.646;2022-12-11T13:31:04;5.75;;;3.75;;
49139;SDS011;34959;49.310;8.646;2022-12-11T13:33:40;5.90;;;4.10;;
49139;SDS011;34959;49.310;8.646;2022-12-11T13:38:32;5.10;;;3.90;;
49139;SDS011;34959;49.310;8.646;2022-12-11T13:40:58;4.75;;;4.20;;
49139;SDS011;34959;49.310;8.646;2022-12-11T13:43:27;4.45;;;3.72;;
49139;SDS011;34959;49.310;8.646;2022-12-11T13:45:55;5.22;;;3.97;;
49139;SDS011;34959;49.310;8.646;2022-12-11T13:48:24;4.65;;;3.60;;
49139;SDS011;34959;49.310;8.646;2022-12-11T13:51:20;5.18;;;3.60;;
49139;SDS011;34959;49.310;8.646;2022-12-11T13:53:47;7.28;;;3.78;;
49139;SDS011;34959;49.310;8.646;2022-12-11T13:56:20;4.30;;;3.42;;
49139;SDS011;34959;49.310;8.646;2022-12-11T13:58:46;4.43;;;3.55;;
49139;SDS011;34959;49.310;8.646;2022-12-11T14:01:19;4.20;;;3.55;;
49139;SDS011;34959;49.310;8.646;2022-12-11T14:03:53;4.93;;;4.00;;
49139;SDS011;34959;49.310;8.646;2022-12-11T14:06:21;4.18;;;3.50;;
49139;SDS011;34959;49.310;8.646;2022-12-11T14:08:47;4.68;;;3.50;;
49139;SDS011;34959;49.310;8.646;2022-12-11T14:11:20;5.00;;;3.45;;
49139;SDS011;34959;49.310;8.646;2022-12-11T14:13:47;4.72;;;3.60;;
49139;SDS011;34959;49.310;8.646;2022-12-11T14:16:18;4.65;;;3.80;;
49139;SDS011;34959;49.310;8.646;2022-12-11T14:18:46;5.47;;;3.63;;
49139;SDS011;34959;49.310;8.646;2022-12-11T14:21:20;4.05;;;3.53;;
49139;SDS011;34959;49.310;8.646;2022-12-11T14:23:51;4.95;;;3.60;;
49139;SDS011;34959;49.310;8.646;2022-12-11T14:26:19;3.75;;;3.20;;
49139;SDS011;34959;49.310;8.646;2022-12-11T14:28:46;4.47;;;3.70;;
49139;SDS011;34959;49.310;8.646;2022-12-11T14:31:13;4.47;;;3.42;;
49139;SDS011;34959;49.310;8.646;2022-12-11T14:33:47;4.50;;;3.65;;
49139;SDS011;34959;49.310;8.646;2022-12-11T14:36:16;4.72;;;3.92;;
49139;SDS011;34959;49.310;8.646;2022-12-11T14:38:43;4.50;;;3.60;;
49139;SDS011;34959;49.310;8.646;2022-12-11T14:41:56;5.68;;;3.30;;
49139;SDS011;34959;49.310;8.646;2022-12-11T14:44:13;4.25;;;3.10;;
49139;SDS011;34959;49.310;8.646;2022-12-11T14:46:47;4.13;;;3.60;;
49139;SDS011;34959;49.310;8.646;2022-12-11T14:52:01;4.13;;;3.50;;
49139;SDS011;34959;49.310;8.646;2022-12-11T14:54:33;4.32;;;3.40;;
49139;SDS011;34959;49.310;8.646;2022-12-11T14:57:01;4.50;;;3.22;;
49139;SDS011;34959;49.310;8.646;2022-12-11T14:59:30;3.78;;;3.10;;
49139;SDS011;34959;49.310;8.646;2022-12-11T15:02:02;5.03;;;3.40;;
49139;SDS011;34959;49.310;8.646;2022-12-11T15:04:43;4.30;;;3.22;;
49139;SDS011;34959;49.310;8.646;2022-12-11T15:07:18;10.30;;;3.30;;
49139;SDS011;34959;49.310;8.646;2022-12-11T15:09:45;3.35;;;3.05;;
49139;SDS011;34959;49.310;8.646;2022-12-11T15:12:12;4.03;;;3.28;;
49139;SDS011;34959;49.310;8.646;2022-12-11T15:14:47;3.63;;;3.08;;
49139;SDS011;34959;49.310;8.646;2022-12-11T15:17:17;3.90;;;2.83;;
49139;SDS011;34959;49.310;8.646;2022-12-11T15:19:47;4.18;;;3.38;;
49139;SDS011;34959;49.310;8.646;2022-12-11T15:22:15;3.65;;;2.95;;
49139;SDS011;34959;49.310;8.646;2022-12-11T15:24:42;7.18;;;3.42;;
49139;SDS011;34959;49.310;8.646;2022-12-11T15:27:20;3.05;;;2.63;;
49139;SDS011;34959;49.310;8.646;2022-12-11T15:29:47;8.43;;;4.18;;
49139;SDS011;34959;49.310;8.646;2022-12-11T15:34:42;30.25;;;13.68;;
49139;SDS011;34959;49.310;8.646;2022-12-11T15:39:52;10.15;;;5.10;;
49139;SDS011;34959;49.310;8.646;2022-12-11T15:42:25;11.00;;;5.18;;
49139;SDS011;34959;49.310;8.646;2022-12-11T15:45:06;7.88;;;4.70;;
49139;SDS011;34959;49.310;8.646;2022-12-11T15:47:33;6.72;;;4.50;;
49139;SDS011;34959;49.310;8.646;2022-12-11T15:49:59;10.23;;;4.68;;
49139;SDS011;34959;49.310;8.646;2022-12-11T15:52:31;17.42;;;4.80;;
49139;SDS011;34959;49.310;8.646;2022-12-11T15:54:58;8.15;;;4.60;;
49139;SDS011;34959;49.310;8.646;2022-12-11T15:57:23;7.93;;;3.97;;
49139;SDS011;34959;49.310;8.646;2022-12-11T15:59:49;5.43;;;3.92;;
49139;SDS011;34959;49.310;8.646;2022-12-11T16:02:16;5.80;;;4.00;;
49139;SDS011;34959;49.310;8.646;2022-12-11T16:04:42;7.47;;;4.35;;
49139;SDS011;34959;49.310;8.646;2022-12-11T16:07:15;4.32;;;3.40;;
49139;SDS011;34959;49.310;8.646;2022-12-11T16:09:42;7.40;;;4.05;;
49139;SDS011;34959;49.310;8.646;2022-12-11T16:12:07;9.00;;;3.70;;